Time;durP1;ratioP1;P1;durP2;ratioP2;P2;SDS_P1;SDS_P2;PMS_P1;PMS_P2;Temp;Humidity;BMP_temperature;BMP_pressure;BME280_temperature;BME280_humidity;BME280_pressure;Samples;Min_cycle;Max_cycle;Signal;HPM_P1;HPM_P2
2022/09/20 00:00:01;;;;;;;14.50;2.85;;;;;;;11.85;100.00;102204.56;4979792;28;20042;-43
2022/09/20 00:02:27;;;;;;;14.25;2.78;;;;;;;11.86;100.00;102200.06;4980883;28;20027;-43
2022/09/20 00:04:52;;;;;;;18.75;2.75;;;;;;;11.82;100.00;102204.91;4980453;28;20038;-42
2022/09/20 00:07:17;;;;;;;17.10;3.25;;;;;;;11.80;100.00;102208.75;4979098;28;20173;-43
2022/09/20 00:09:43;;;;;;;19.88;2.90;;;;;;;11.88;100.00;102214.25;4980582;28;20054;-43
2022/09/20 00:12:08;;;;;;;21.98;2.97;;;;;;;11.95;100.00;102222.53;4976733;28;20027;-44
2022/09/20 00:14:34;;;;;;;20.42;2.97;;;;;;;11.96;100.00;102222.38;4977738;28;20483;-45
2022/09/20 00:16:59;;;;;;;18.83;2.78;;;;;;;11.95;100.00;102219.84;4980600;28;20487;-43
2022/09/20 00:19:24;;;;;;;18.25;2.40;;;;;;;11.96;100.00;102222.38;4993103;28;20031;-45
2022/09/20 00:21:50;;;;;;;19.42;3.30;;;;;;;11.99;100.00;102213.97;4989925;28;20290;-43
2022/09/20 00:24:15;;;;;;;13.23;2.47;;;;;;;12.03;100.00;102215.38;4977286;28;20421;-42
2022/09/20 00:26:40;;;;;;;23.10;2.08;;;;;;;12.02;100.00;102208.25;4972344;28;20522;-43
2022/09/20 00:29:06;;;;;;;16.63;2.33;;;;;;;12.03;100.00;102204.56;4972509;28;20041;-42
2022/09/20 00:31:32;;;;;;;18.17;2.42;;;;;;;12.01;100.00;102200.34;4973352;28;20019;-42
2022/09/20 00:36:42;;;;;;;24.13;2.50;;;;;;;11.94;100.00;102205.50;4974738;28;20130;-41
2022/09/20 00:39:11;;;;;;;10.75;1.67;;;;;;;11.90;100.00;102206.84;4974775;28;20031;-41
2022/09/20 00:41:36;;;;;;;15.90;1.90;;;;;;;11.90;100.00;102206.84;4975274;28;20130;-41
2022/09/20 00:44:02;;;;;;;14.75;2.10;;;;;;;11.81;100.00;102205.03;4976781;28;20058;-41
2022/09/20 00:46:37;;;;;;;11.85;1.70;;;;;;;11.74;100.00;102207.53;4976989;28;20027;-42
2022/09/20 00:49:10;;;;;;;12.82;1.88;;;;;;;11.71;100.00;102215.06;4976132;28;20050;-42
2022/09/20 00:51:38;;;;;;;13.60;1.70;;;;;;;11.67;100.00;102205.59;4975711;28;20490;-42
2022/09/20 00:54:04;;;;;;;20.85;2.00;;;;;;;11.62;100.00;102215.00;4976548;28;20027;-42
2022/09/20 00:56:32;;;;;;;23.33;2.60;;;;;;;11.56;100.00;102207.53;4976244;28;20311;-41
2022/09/20 00:59:05;;;;;;;10.18;2.88;;;;;;;11.53;100.00;102212.38;4977146;28;20118;-41
2022/09/20 01:01:31;;;;;;;18.40;2.38;;;;;;;11.52;100.00;102208.84;4975729;28;20105;-42
2022/09/20 01:03:57;;;;;;;17.65;2.22;;;;;;;11.52;100.00;102214.22;4978313;28;20451;-42
2022/09/20 01:06:23;;;;;;;10.68;2.08;;;;;;;11.47;100.00;102205.75;4977893;28;20058;-42
2022/09/20 01:08:51;;;;;;;22.83;3.08;;;;;;;11.46;100.00;102195.16;4975284;28;20043;-42
2022/09/20 01:11:16;;;;;;;15.70;2.20;;;;;;;11.39;100.00;102201.13;4976813;28;20066;-41
2022/09/20 01:13:42;;;;;;;19.75;2.10;;;;;;;11.37;100.00;102210.38;4977905;28;20031;-42
2022/09/20 01:16:08;;;;;;;12.82;2.72;;;;;;;11.35;100.00;102201.63;4977574;28;20029;-42
2022/09/20 01:18:33;;;;;;;12.02;2.00;;;;;;;11.33;100.00;102209.00;4979034;28;20161;-41
2022/09/20 01:21:00;;;;;;;17.42;2.42;;;;;;;11.32;100.00;102205.47;4981310;28;20066;-42
2022/09/20 01:23:33;;;;;;;20.90;3.75;;;;;;;11.28;100.00;102200.53;4957210;28;20081;-41
2022/09/20 01:26:20;;;;;;;20.13;2.55;;;;;;;11.27;100.00;102206.91;4981377;28;20053;-42
2022/09/20 01:28:47;;;;;;;18.90;2.85;;;;;;;11.23;100.00;102209.06;4982809;28;20565;-42
2022/09/20 01:31:32;;;;;;;15.48;2.45;;;;;;;11.21;100.00;102216.44;4980729;28;20026;-42
2022/09/20 01:34:09;;;;;;;20.70;3.03;;;;;;;11.15;100.00;102209.81;4981731;28;20093;-42
2022/09/20 01:36:43;;;;;;;15.38;2.75;;;;;;;11.12;100.00;102212.00;4982743;28;20031;-41
2022/09/20 01:39:17;;;;;;;15.65;2.95;;;;;;;11.05;100.00;102203.66;4982040;28;20035;-42
2022/09/20 01:41:56;;;;;;;10.13;2.97;;;;;;;10.99;100.00;102205.09;4982770;28;20470;-42
2022/09/20 01:44:31;;;;;;;9.77;2.42;;;;;;;11.01;100.00;102204.97;4984077;28;20037;-42
2022/09/20 01:47:03;;;;;;;15.27;3.45;;;;;;;11.02;100.00;102206.66;4982925;28;20046;-42
2022/09/20 01:49:47;;;;;;;18.70;2.90;;;;;;;10.96;100.00;102204.56;4981759;28;20038;-42
2022/09/20 01:52:34;;;;;;;28.17;3.35;;;;;;;10.95;100.00;102201.03;4982673;28;20461;-42
2022/09/20 01:55:27;;;;;;;16.42;2.80;;;;;;;10.96;100.00;102201.88;4983145;28;20031;-42
2022/09/20 01:58:23;;;;;;;13.07;3.50;;;;;;;10.95;100.00;102194.78;4981068;28;20494;-42
2022/09/20 02:01:26;;;;;;;24.33;3.40;;;;;;;10.98;100.00;102206.13;4982720;28;20019;-43
2022/09/20 02:04:25;;;;;;;18.38;3.55;;;;;;;10.95;100.00;102197.47;4982498;28;20038;-43
2022/09/20 02:07:28;;;;;;;23.40;4.13;;;;;;;10.91;100.00;102193.41;4983845;28;20050;-42
2022/09/20 02:10:17;;;;;;;16.75;3.38;;;;;;;10.88;100.00;102196.41;4982479;28;20138;-42
2022/09/20 02:12:53;;;;;;;16.00;3.22;;;;;;;10.87;100.00;102195.53;4983602;28;20386;-42
2022/09/20 02:15:27;;;;;;;18.05;3.72;;;;;;;10.90;100.00;102195.25;4983336;28;20027;-41
2022/09/20 02:18:18;;;;;;;23.13;4.10;;;;;;;10.90;100.00;102191.69;4983425;28;20043;-42
2022/09/20 02:21:13;;;;;;;20.70;3.75;;;;;;;10.89;100.00;102196.22;4981953;28;20031;-44
2022/09/20 02:23:51;;;;;;;16.35;3.95;;;;;;;10.86;100.00;102203.78;4978147;28;20057;-42
2022/09/20 02:26:40;;;;;;;19.17;2.95;;;;;;;10.87;100.00;102197.38;4983360;28;20131;-42
2022/09/20 02:29:18;;;;;;;20.85;3.30;;;;;;;10.86;100.00;102201.94;4972205;28;20042;-42
2022/09/20 02:32:14;;;;;;;16.52;3.28;;;;;;;10.86;100.00;102201.94;4982401;28;20035;-42
2022/09/20 02:35:04;;;;;;;27.08;4.10;;;;;;;10.85;100.00;102194.84;4982699;28;20493;-42
2022/09/20 02:37:32;;;;;;;20.23;2.90;;;;;;;10.84;100.00;102195.00;4955597;28;20784;-42
2022/09/20 02:40:31;;;;;;;27.40;3.67;;;;;;;10.84;100.00;102197.69;4982590;28;20026;-42
2022/09/20 02:43:20;;;;;;;25.70;3.45;;;;;;;10.80;100.00;102196.31;4993132;28;20035;-42
2022/09/20 02:46:02;;;;;;;21.88;3.72;;;;;;;10.78;100.00;102193.75;4983151;28;20027;-43
2022/09/20 02:48:48;;;;;;;21.45;3.42;;;;;;;10.77;100.00;102192.91;4978871;28;20038;-43
2022/09/20 02:51:39;;;;;;;24.23;4.30;;;;;;;10.75;100.00;102200.28;4983773;28;20110;-42
2022/09/20 02:54:24;;;;;;;18.60;3.90;;;;;;;10.73;100.00;102191.50;4982794;28;20387;-42
2022/09/20 02:57:01;;;;;;;11.40;2.90;;;;;;;10.71;100.00;102188.09;4984212;28;20111;-42
2022/09/20 02:59:53;;;;;;;33.35;4.35;;;;;;;10.72;100.00;102189.81;4981806;28;20030;-43
2022/09/20 03:02:52;;;;;;;14.02;3.50;;;;;;;10.75;100.00;102177.91;4974683;28;20105;-42
2022/09/20 03:05:24;;;;;;;20.83;3.17;;;;;;;10.78;100.00;102182.97;4983359;28;20030;-42
2022/09/20 03:08:05;;;;;;;19.92;3.40;;;;;;;10.81;100.00;102182.69;4981251;28;20066;-42
2022/09/20 03:10:34;;;;;;;12.20;3.25;;;;;;;10.84;100.00;102190.44;4979445;28;20454;-42
2022/09/20 03:13:09;;;;;;;19.92;3.17;;;;;;;10.87;100.00;102181.22;4983189;28;20035;-43
2022/09/20 03:15:52;;;;;;;17.15;2.97;;;;;;;10.87;100.00;102192.00;4983612;28;20057;-42
2022/09/20 03:19:03;;;;;;;27.23;3.70;;;;;;;10.91;100.00;102194.25;4980471;28;20026;-42
2022/09/20 03:22:04;;;;;;;14.57;3.22;;;;;;;10.94;100.00;102196.63;4945466;28;20062;-43
2022/09/20 03:25:12;;;;;;;21.70;4.32;;;;;;;10.93;100.00;102213.81;4979897;28;20058;-42
2022/09/20 03:27:42;;;;;;;;;;;;;;;10.98;100.00;102199.88;4975059;28;20054;-44
2022/09/20 03:30:46;;;;;;;18.27;3.55;;;;;;;11.02;100.00;102190.50;4981867;28;19914;-42
2022/09/20 03:33:29;;;;;;;16.52;3.15;;;;;;;11.09;100.00;102199.66;4982997;28;20085;-42
2022/09/20 03:36:25;;;;;;;26.02;3.10;;;;;;;11.11;100.00;102194.97;4982616;28;20066;-42
2022/09/20 03:39:16;;;;;;;21.67;3.72;;;;;;;11.16;100.00;102198.06;4981572;28;20037;-43
2022/09/20 03:41:46;;;;;;;23.85;3.35;;;;;;;11.18;100.00;102212.22;4972419;28;20142;-43
2022/09/20 03:44:30;;;;;;;20.77;3.22;;;;;;;11.15;100.00;102217.91;4975928;28;20039;-41
2022/09/20 03:47:16;;;;;;;30.95;4.43;;;;;;;11.11;100.00;102210.28;4972117;28;20027;-39
2022/09/20 03:50:03;;;;;;;27.10;3.05;;;;;;;11.11;100.00;102216.53;4974484;28;20038;-44
2022/09/20 03:53:03;;;;;;;30.98;3.70;;;;;;;11.13;100.00;102214.50;4979714;28;20046;-46
2022/09/20 03:55:50;;;;;;;23.52;3.38;;;;;;;11.17;100.00;102215.91;4970582;28;20054;-45
2022/09/20 03:58:40;;;;;;;26.17;3.20;;;;;;;11.20;100.00;102220.16;4995577;28;20042;-45
2022/09/20 04:01:25;;;;;;;18.50;2.97;;;;;;;11.21;100.00;102214.59;4995180;28;20033;-45
2022/09/20 04:03:59;;;;;;;17.67;3.08;;;;;;;11.20;100.00;102210.22;4979828;28;20062;-46
2022/09/20 04:06:37;;;;;;;16.10;2.78;;;;;;;11.24;100.00;102218.00;4994358;28;20014;-45
2022/09/20 04:09:28;;;;;;;27.80;2.97;;;;;;;11.20;100.00;102215.59;4994370;28;20046;-44
2022/09/20 04:12:14;;;;;;;7.82;1.75;;;;;;;11.18;100.00;102217.59;4991086;28;20308;-43
2022/09/20 04:14:53;;;;;;;12.40;2.20;;;;;;;11.14;100.00;102204.59;4983773;28;20070;-42
2022/09/20 04:17:48;;;;;;;12.77;2.05;;;;;;;11.13;100.00;102208.28;4976355;28;20023;-44
2022/09/20 04:20:27;;;;;;;25.27;2.47;;;;;;;11.14;100.00;102201.91;4959254;28;20490;-42
2022/09/20 04:22:55;;;;;;;18.08;2.90;;;;;;;11.17;100.00;102198.91;4972457;28;20505;-42
2022/09/20 04:25:26;;;;;;;19.27;2.85;;;;;;;11.16;100.00;102203.47;4991431;28;20110;-42
2022/09/20 04:28:24;;;;;;;13.00;2.13;;;;;;;11.15;100.00;102199.03;4977140;28;20027;-41
2022/09/20 04:30:54;;;;;;;15.32;2.63;;;;;;;11.21;100.00;102209.22;4966524;28;20097;-42
2022/09/20 04:33:24;;;;;;;15.75;2.60;;;;;;;11.27;100.00;102212.28;4977159;28;20549;-41
2022/09/20 04:38:54;;;;;;;18.95;3.53;;;;;;;11.24;100.00;102218.84;4978171;28;20069;-42
2022/09/20 04:41:33;;;;;;;13.23;2.17;;;;;;;11.27;100.00;102215.84;4989654;28;20027;-41
2022/09/20 04:44:26;;;;;;;21.25;2.33;;;;;;;11.26;100.00;102221.38;4980182;28;20038;-41
2022/09/20 04:47:07;;;;;;;18.90;2.40;;;;;;;11.25;100.00;102225.94;4981732;28;20537;-41
2022/09/20 04:50:10;;;;;;;21.00;2.47;;;;;;;11.32;100.00;102223.47;4970531;28;20035;-41
2022/09/20 04:52:48;;;;;;;16.65;4.38;;;;;;;11.37;100.00;102224.72;4945301;28;20070;-42
2022/09/20 04:55:34;;;;;;;25.25;4.07;;;;;;;11.41;100.00;102225.25;4984322;28;20084;-42
2022/09/20 04:58:18;;;;;;;17.25;3.67;;;;;;;11.46;100.00;102225.66;4985037;28;20062;-41
2022/09/20 05:01:15;;;;;;;18.20;2.85;;;;;;;11.49;100.00;102217.25;4984455;28;20049;-41
2022/09/20 05:03:52;;;;;;;22.70;2.65;;;;;;;11.55;100.00;102227.41;4978765;28;20026;-41
2022/09/20 05:06:49;;;;;;;25.60;2.37;;;;;;;11.57;100.00;102228.09;4985928;28;20159;-42
2022/09/20 05:09:27;;;;;;;18.83;1.92;;;;;;;11.57;100.00;102220.00;4976826;28;20294;-42
2022/09/20 05:12:24;;;;;;;30.25;3.75;;;;;;;11.60;100.00;102233.19;4966930;28;20042;-41
2022/09/20 05:15:10;;;;;;;22.27;3.58;;;;;;;11.61;100.00;102213.31;4980170;28;20133;-42
2022/09/20 05:17:38;;;;;;;26.02;3.35;;;;;;;11.60;100.00;102211.59;4979422;28;20035;-41
2022/09/20 05:20:23;;;;;;;;;;;;;;;11.61;100.00;102217.84;4968229;28;20031;-41
2022/09/20 05:23:22;;;;;;;28.80;3.10;;;;;;;11.63;100.00;102216.69;4986091;28;19914;-42
2022/09/20 05:25:53;;;;;;;16.17;2.83;;;;;;;11.63;100.00;102211.28;4985240;28;20094;-40
2022/09/20 05:28:29;;;;;;;13.15;2.55;;;;;;;11.61;100.00;102213.31;4985432;28;20023;-42
2022/09/20 05:30:59;;;;;;;18.42;3.00;;;;;;;11.62;100.00;102215.00;4984210;28;20050;-41
2022/09/20 05:33:49;;;;;;;15.77;3.13;;;;;;;11.61;100.00;102221.41;4982882;28;20027;-41
2022/09/20 05:36:29;;;;;;;21.40;2.97;;;;;;;11.60;100.00;102217.00;4965554;28;20031;-40
2022/09/20 05:39:32;;;;;;;14.90;3.20;;;;;;;11.59;100.00;102223.41;4994140;28;20100;-40
2022/09/20 05:42:04;;;;;;;20.95;3.65;;;;;;;11.62;100.00;102225.78;4977960;28;20529;-41
2022/09/20 05:45:16;;;;;;;22.63;4.50;;;;;;;11.61;100.00;102223.22;4986191;28;20031;-41
2022/09/20 05:48:04;;;;;;;20.15;3.97;;;;;;;11.61;100.00;102224.09;4988819;28;20034;-42
2022/09/20 05:50:38;;;;;;;25.63;4.70;;;;;;;11.63;100.00;102238.25;4989563;28;20030;-43
2022/09/20 05:53:41;;;;;;;24.55;4.40;;;;;;;11.63;100.00;102223.94;4985327;28;20046;-41
2022/09/20 05:56:17;;;;;;;20.45;4.43;;;;;;;11.66;100.00;102237.09;4987145;28;20061;-42
2022/09/20 05:58:52;;;;;;;19.08;4.43;;;;;;;11.68;100.00;102227.00;4985044;28;20019;-41
2022/09/20 06:01:37;;;;;;;31.75;4.70;;;;;;;11.76;100.00;102234.31;4987555;28;20030;-41
2022/09/20 06:04:23;;;;;;;30.10;4.85;;;;;;;11.81;100.00;102234.72;4986113;28;20051;-41
2022/09/20 06:07:00;;;;;;;31.13;3.97;;;;;;;11.86;100.00;102241.34;4985331;28;20390;-42
2022/09/20 06:09:59;;;;;;;23.08;3.95;;;;;;;11.91;100.00;102243.59;4987362;28;20046;-41
2022/09/20 06:12:51;;;;;;;25.27;4.78;;;;;;;11.98;100.00;102241.09;4979085;28;20027;-42
2022/09/20 06:15:32;;;;;;;14.15;3.60;;;;;;;12.04;100.00;102244.03;4984258;28;20502;-42
2022/09/20 06:18:30;;;;;;;20.27;3.45;;;;;;;12.08;100.00;102253.53;4986361;28;20042;-41
2022/09/20 06:21:06;;;;;;;21.00;3.80;;;;;;;12.12;100.00;102254.03;4986116;28;20054;-42
2022/09/20 06:23:34;;;;;;;18.13;3.50;;;;;;;12.15;100.00;102255.59;4984874;28;20514;-41
2022/09/20 06:26:05;;;;;;;22.55;4.47;;;;;;;12.17;100.00;102258.97;4983828;28;20037;-41
2022/09/20 06:28:38;;;;;;;16.23;3.42;;;;;;;12.25;100.00;102254.47;4983178;28;20077;-41
2022/09/20 06:31:07;;;;;;;25.08;4.80;;;;;;;12.35;100.00;102254.38;4985023;28;20026;-42
2022/09/20 06:33:43;;;;;;;23.05;4.93;;;;;;;12.49;100.00;102256.47;4987533;28;20046;-42
2022/09/20 06:42:17;;;;;;;21.48;4.35;;;;;;;13.12;100.00;102263.34;4961827;28;20057;-43
2022/09/20 06:44:43;;;;;;;20.95;3.40;;;;;;;13.42;100.00;102262.94;4970358;28;20042;-40
2022/09/20 06:47:12;;;;;;;28.02;3.58;;;;;;;13.66;100.00;102262.97;4975974;28;20043;-42
2022/09/20 06:49:40;;;;;;;20.30;2.67;;;;;;;13.85;100.00;102267.25;4977776;28;20039;-41
2022/09/20 06:52:16;;;;;;;21.67;3.17;;;;;;;14.02;98.32;102266.19;4977962;28;20097;-41
2022/09/20 06:54:46;;;;;;;17.77;2.97;;;;;;;14.01;94.03;102263.69;4979678;28;20027;-41
2022/09/20 06:57:14;;;;;;;26.80;2.83;;;;;;;14.11;91.75;102271.59;4982959;28;20109;-41
2022/09/20 06:59:39;;;;;;;21.75;2.45;;;;;;;14.21;89.90;102265.00;4972679;28;20498;-42
2022/09/20 07:02:05;;;;;;;27.50;3.28;;;;;;;14.37;87.52;102266.00;4984718;28;20035;-41
2022/09/20 07:04:31;;;;;;;15.35;2.33;;;;;;;14.48;85.49;102269.19;4974249;28;20023;-40
2022/09/20 07:07:04;;;;;;;20.90;2.72;;;;;;;14.65;83.79;102267.31;4980629;28;20074;-41
2022/09/20 07:09:30;;;;;;;17.55;1.98;;;;;;;14.97;82.63;102275.50;4986332;28;20035;-40
2022/09/20 07:11:57;;;;;;;14.13;1.98;;;;;;;15.53;81.40;102271.66;4986257;28;20034;-42
2022/09/20 07:14:23;;;;;;;26.98;2.22;;;;;;;16.34;77.48;102272.00;4986860;28;20057;-42
2022/09/20 07:16:49;;;;;;;19.38;1.95;;;;;;;17.37;72.29;102272.16;4990106;28;20103;-43
2022/09/20 07:19:15;;;;;;;20.70;2.25;;;;;;;18.41;64.52;102275.25;4985233;28;20027;-40
2022/09/20 07:21:40;;;;;;;18.95;2.00;;;;;;;19.43;62.56;102277.25;4974582;28;20023;-41
2022/09/20 07:24:06;;;;;;;21.80;2.20;;;;;;;20.12;55.84;102276.09;4989583;28;20074;-42
2022/09/20 07:26:31;;;;;;;19.50;1.70;;;;;;;19.99;55.14;102273.34;4988035;28;20355;-41
2022/09/20 07:28:58;;;;;;;13.90;2.03;;;;;;;20.64;52.81;102276.25;4988374;28;20038;-40
2022/09/20 07:31:25;;;;;;;14.75;1.92;;;;;;;20.47;52.49;102280.47;4987665;28;20031;-41
2022/09/20 07:33:50;;;;;;;10.43;1.80;;;;;;;20.82;51.76;102286.50;4988270;28;20022;-42
2022/09/20 07:36:16;;;;;;;11.60;1.70;;;;;;;21.54;47.22;102281.81;4987533;28;20111;-41
2022/09/20 07:38:46;;;;;;;12.98;5.07;;;;;;;22.25;47.26;102288.03;4987716;28;20038;-41
2022/09/20 07:41:11;;;;;;;10.40;1.40;;;;;;;22.76;41.48;102286.91;4974382;28;20057;-41
2022/09/20 07:43:37;;;;;;;7.57;1.75;;;;;;;23.13;43.03;102295.16;4987442;28;20034;-42
2022/09/20 07:46:03;;;;;;;10.25;1.80;;;;;;;23.62;41.22;102296.81;4987452;28;20054;-41
2022/09/20 07:48:32;;;;;;;7.35;1.38;;;;;;;23.54;43.54;102305.38;4987248;28;20026;-41
2022/09/20 07:51:01;;;;;;;14.70;2.05;;;;;;;22.88;45.87;102307.03;4985916;28;20035;-41
2022/09/20 07:53:26;;;;;;;12.18;2.03;;;;;;;22.76;46.20;102304.19;4985738;28;20057;-40
2022/09/20 07:56:00;;;;;;;12.57;1.60;;;;;;;22.82;45.41;102302.44;4984553;28;20050;-41
2022/09/20 07:58:26;;;;;;;10.35;1.98;;;;;;;22.35;43.26;102313.06;4980175;28;20066;-42
2022/09/20 08:00:56;;;;;;;14.80;1.73;;;;;;;21.80;41.87;102310.06;4981817;28;20023;-41
2022/09/20 08:03:22;;;;;;;8.57;1.77;;;;;;;21.98;45.02;102310.16;4982044;28;20037;-42
2022/09/20 08:05:49;;;;;;;9.77;1.25;;;;;;;22.37;45.31;102315.59;4980914;28;20117;-43
2022/09/20 08:08:16;;;;;;;8.90;1.40;;;;;;;22.36;41.32;102320.22;4982131;28;20066;-42
2022/09/20 08:10:41;;;;;;;;;;;;;;;23.29;43.72;102326.63;4984170;28;20311;-42
2022/09/20 08:13:07;;;;;;;15.65;1.80;;;;;;;24.30;40.96;102320.28;4983620;28;19914;-42
2022/09/20 08:15:32;;;;;;;7.68;1.50;;;;;;;24.55;40.73;102316.50;4982430;28;20026;-42
2022/09/20 08:17:58;;;;;;;7.28;1.13;;;;;;;25.79;36.92;102321.53;4982032;28;20109;-43
2022/09/20 08:20:23;;;;;;;13.15;1.23;;;;;;;26.39;36.64;102328.38;4983697;28;20049;-42
2022/09/20 08:22:49;;;;;;;9.70;1.10;;;;;;;26.98;35.55;102324.25;4983674;28;20240;-42
2022/09/20 08:25:16;;;;;;;6.05;1.27;;;;;;;26.71;34.16;102333.28;4983706;28;20493;-43
2022/09/20 08:27:42;;;;;;;7.80;1.30;;;;;;;26.56;36.62;102342.16;4979698;28;20062;-42
2022/09/20 08:30:08;;;;;;;9.15;1.10;;;;;;;25.72;37.69;102331.03;4983670;28;20042;-43
2022/09/20 08:32:33;;;;;;;8.80;1.20;;;;;;;25.52;39.39;102331.50;4983915;28;20027;-44
2022/09/20 08:34:59;;;;;;;9.75;1.23;;;;;;;25.67;38.52;102333.72;4985246;28;20528;-43
2022/09/20 08:37:24;;;;;;;11.55;1.45;;;;;;;26.58;36.50;102344.69;4986046;28;20029;-43
2022/09/20 08:39:49;;;;;;;11.27;1.50;;;;;;;26.77;35.36;102342.47;4984421;28;20043;-42
2022/09/20 08:42:30;;;;;;;4.75;0.95;;;;;;;27.29;35.59;102348.44;4985831;28;20098;-43
2022/09/20 08:45:02;;;;;;;12.75;1.95;;;;;;;28.13;31.80;102355.44;4984394;28;20039;-43
2022/09/20 08:47:37;;;;;;;11.50;1.70;;;;;;;28.82;31.23;102351.78;4983411;28;20046;-42
2022/09/20 08:50:06;;;;;;;12.40;1.65;;;;;;;28.75;31.70;102355.88;4983877;28;20068;-44
2022/09/20 08:52:35;;;;;;;9.02;1.50;;;;;;;27.30;30.77;102352.88;4965400;28;20463;-43
2022/09/20 08:55:01;;;;;;;3.97;1.17;;;;;;;26.37;34.63;102349.03;4981852;28;20143;-43
2022/09/20 08:57:30;;;;;;;9.20;1.35;;;;;;;27.25;32.42;102343.69;4982316;28;20043;-42
2022/09/20 08:59:58;;;;;;;7.22;1.25;;;;;;;26.81;33.86;102341.72;4978705;28;20051;-42
2022/09/20 09:02:23;;;;;;;5.75;1.58;;;;;;;26.67;33.76;102349.53;4982967;28;20039;-42
2022/09/20 09:04:50;;;;;;;8.00;1.63;;;;;;;25.38;35.99;102347.47;4979679;28;20114;-41
2022/09/20 09:07:20;;;;;;;8.25;1.38;;;;;;;25.16;35.09;102341.81;4983196;28;20047;-42
2022/09/20 09:09:46;;;;;;;9.52;1.70;;;;;;;24.33;36.86;102357.50;4979765;28;20296;-42
2022/09/20 09:12:28;;;;;;;6.97;1.30;;;;;;;23.20;40.11;102353.59;4981577;28;20199;-42
2022/09/20 09:14:58;;;;;;;8.02;1.33;;;;;;;22.00;41.79;102351.91;4980056;28;20105;-42
2022/09/20 09:17:25;;;;;;;10.15;1.30;;;;;;;21.47;44.91;102350.31;4981741;28;20031;-41
2022/09/20 09:19:53;;;;;;;9.23;1.70;;;;;;;21.15;46.33;102351.28;4980453;28;20035;-42
2022/09/20 09:22:34;;;;;;;;;;;;;;;20.83;48.25;102348.41;4981444;28;20121;-42
2022/09/20 09:25:15;;;;;;;18.33;1.52;;;;;;;20.95;47.33;102352.16;4983211;28;19949;-41
2022/09/20 09:27:56;;;;;;;6.65;1.38;;;;;;;20.73;47.98;102356.22;4965404;28;20030;-43
2022/09/20 09:30:25;;;;;;;8.85;1.20;;;;;;;20.44;47.67;102360.22;4978926;28;20375;-42
2022/09/20 09:32:52;;;;;;;11.23;1.63;;;;;;;20.33;48.61;102354.31;4980787;28;20115;-42
2022/09/20 09:35:28;;;;;;;4.32;1.40;;;;;;;20.25;47.31;102356.41;4971020;28;20115;-43
2022/09/20 09:37:59;;;;;;;7.47;1.13;;;;;;;19.84;46.28;102352.78;4978253;28;20133;-41
2022/09/20 09:40:25;;;;;;;9.57;1.30;;;;;;;19.76;47.94;102358.44;4981116;28;20035;-41
2022/09/20 09:42:52;;;;;;;5.10;1.15;;;;;;;19.73;48.03;102365.16;4983105;28;20804;-42
2022/09/20 09:45:26;;;;;;;7.22;1.05;;;;;;;19.71;45.27;102361.78;4979904;28;20030;-41
2022/09/20 09:47:53;;;;;;;8.00;1.60;;;;;;;19.43;46.57;102361.00;4998870;28;20089;-42
2022/09/20 09:50:25;;;;;;;11.02;1.55;;;;;;;19.02;46.35;102362.72;4984635;28;20039;-41
2022/09/20 09:53:04;;;;;;;11.82;1.70;;;;;;;18.88;47.96;102354.63;4982769;28;20035;-42
2022/09/20 09:55:42;;;;;;;6.90;1.30;;;;;;;18.86;48.74;102363.03;4982823;28;20094;-42
2022/09/20 09:58:20;;;;;;;11.70;1.38;;;;;;;19.14;47.94;102359.41;4984221;28;20031;-41
2022/09/20 10:00:46;;;;;;;10.77;1.20;;;;;;;19.23;47.35;102352.75;4982298;28;20027;-42
2022/09/20 10:03:33;;;;;;;5.22;1.10;;;;;;;19.45;47.40;102362.50;4984562;28;20038;-42
2022/09/20 10:06:06;;;;;;;12.25;1.17;;;;;;;19.43;46.32;102369.19;4983301;28;20023;-42
2022/09/20 10:09:00;;;;;;;8.30;1.40;;;;;;;19.25;46.07;102367.06;4983747;28;20051;-42
2022/09/20 10:11:40;;;;;;;7.55;0.90;;;;;;;19.11;47.03;102368.84;4961182;28;20396;-41
2022/09/20 10:14:30;;;;;;;5.88;1.40;;;;;;;19.32;47.68;102365.16;4982910;28;20031;-41
2022/09/20 10:17:14;;;;;;;7.55;1.10;;;;;;;19.48;46.28;102359.38;4984815;28;20058;-42
2022/09/20 10:19:49;;;;;;;11.43;1.38;;;;;;;19.53;46.40;102356.84;4984285;28;20026;-43
2022/09/20 10:22:33;;;;;;;5.53;1.48;;;;;;;19.36;45.94;102369.19;4984336;28;20038;-42
2022/09/20 10:25:29;;;;;;;6.55;1.17;;;;;;;18.95;45.31;102356.38;4984144;28;20533;-41
2022/09/20 10:28:19;;;;;;;12.13;1.33;;;;;;;18.96;45.39;102366.25;4983124;28;20441;-41
2022/09/20 10:30:46;;;;;;;9.88;1.05;;;;;;;18.98;46.74;102361.41;4985630;28;20102;-41
2022/09/20 10:33:44;;;;;;;6.65;1.10;;;;;;;19.10;47.52;102360.88;4982857;28;20053;-42
2022/09/20 10:36:27;;;;;;;4.07;0.85;;;;;;;19.33;47.69;102361.41;4960727;28;20047;-41
2022/09/20 10:39:03;;;;;;;8.27;0.88;;;;;;;19.66;45.93;102360.69;4982787;28;20058;-41
2022/09/20 10:44:44;;;;;;;21.10;1.75;;;;;;;19.38;49.52;102366.25;4981450;28;20077;-41
2022/09/20 10:47:24;;;;;;;10.55;1.60;;;;;;;18.81;51.31;102360.06;4975146;28;20046;-41
2022/09/20 10:50:03;;;;;;;8.18;1.10;;;;;;;18.87;52.79;102370.16;4982131;28;20031;-41
2022/09/20 10:53:00;;;;;;;10.55;1.55;;;;;;;18.81;52.86;102357.34;4979314;28;20065;-41
2022/09/20 10:55:31;;;;;;;7.93;1.52;;;;;;;18.54;52.87;102367.19;4980722;28;20045;-41
2022/09/20 10:58:23;;;;;;;8.35;1.20;;;;;;;18.36;55.65;102364.94;4982391;28;20089;-43
2022/09/20 11:01:30;;;;;;;13.35;1.67;;;;;;;18.16;55.93;102368.31;4981116;28;20130;-41
2022/09/20 11:04:17;;;;;;;9.77;1.80;;;;;;;18.16;57.41;102376.50;4945691;29;20043;-41
2022/09/20 11:07:01;;;;;;;6.63;1.67;;;;;;;18.23;57.09;102375.72;4968284;28;20058;-42
2022/09/20 11:09:31;;;;;;;8.27;1.40;;;;;;;18.16;53.86;102375.66;4984024;28;20400;-42
2022/09/20 11:12:26;;;;;;;8.32;1.63;;;;;;;18.24;53.17;102374.69;4983585;28;20031;-42
2022/09/20 11:14:58;;;;;;;7.05;1.00;;;;;;;18.28;49.82;102374.09;4984898;28;20038;-42
2022/09/20 11:17:30;;;;;;;8.73;1.60;;;;;;;18.38;48.79;102371.06;4986811;28;20031;-42
2022/09/20 11:20:06;;;;;;;7.57;1.42;;;;;;;18.89;47.89;102370.81;4988741;28;20027;-42
2022/09/20 11:23:24;;;;;;;5.43;0.93;;;;;;;19.78;44.54;102367.28;4989558;28;20058;-42
2022/09/20 11:25:54;;;;;;;4.45;1.02;;;;;;;20.74;41.72;102371.56;4931245;29;20095;-41
2022/09/20 11:28:39;;;;;;;2.47;0.80;;;;;;;21.45;39.12;102382.56;4986272;28;20053;-41
2022/09/20 11:31:25;;;;;;;10.18;1.20;;;;;;;21.95;39.30;102381.88;4987424;28;20500;-41
2022/09/20 11:33:55;;;;;;;6.50;1.10;;;;;;;22.95;37.09;102379.16;4989817;28;20092;-42
2022/09/20 11:36:30;;;;;;;2.97;0.90;;;;;;;22.89;36.29;102374.59;4989192;28;20031;-42
2022/09/20 11:39:02;;;;;;;5.22;1.17;;;;;;;23.40;36.54;102376.13;4987020;28;20031;-43
2022/09/20 11:41:29;;;;;;;11.63;1.30;;;;;;;23.52;36.65;102370.72;4990823;28;20023;-41
2022/09/20 11:44:05;;;;;;;6.25;1.08;;;;;;;23.94;34.27;102381.81;4991302;28;20042;-41
2022/09/20 11:46:46;;;;;;;7.93;1.40;;;;;;;24.39;34.30;102378.56;4986326;28;20011;-42
2022/09/20 11:49:22;;;;;;;6.47;1.38;;;;;;;24.43;34.41;102382.50;4986670;28;20102;-42
2022/09/20 11:52:10;;;;;;;7.13;1.20;;;;;;;25.16;33.02;102389.47;4988535;28;20035;-42
2022/09/20 11:54:54;;;;;;;12.82;1.55;;;;;;;25.39;31.87;102387.75;4987007;28;20094;-41
2022/09/20 11:57:20;;;;;;;6.35;1.35;;;;;;;25.24;33.25;102385.50;4972120;28;20046;-42
2022/09/20 11:59:56;;;;;;;7.03;1.27;;;;;;;25.75;32.00;102391.22;4988029;28;20031;-44
2022/09/20 12:02:43;;;;;;;12.68;1.77;;;;;;;25.02;32.73;102388.03;4989303;28;20041;-42
2022/09/20 12:05:31;;;;;;;11.95;1.58;;;;;;;25.00;32.50;102394.88;4981435;28;20038;-42
2022/09/20 12:07:59;;;;;;;8.00;1.38;;;;;;;24.56;33.97;102395.22;4985377;28;20038;-41
2022/09/20 12:10:27;;;;;;;12.90;2.00;;;;;;;25.03;34.39;102394.38;4988309;28;20091;-42
2022/09/20 12:12:58;;;;;;;7.65;1.30;;;;;;;25.06;33.58;102396.66;4988540;28;20050;-41
2022/09/20 12:15:31;;;;;;;7.22;1.33;;;;;;;25.03;34.17;102399.91;4984338;28;20043;-42